Time;durP1;ratioP1;P1;durP2;ratioP2;P2;SDS_P1;SDS_P2;PMS_P1;PMS_P2;Temp;Humidity;BMP_temperature;BMP_pressure;BME280_temperature;BME280_humidity;BME280_pressure;Samples;Min_cycle;Max_cycle;Signal;HPM_P1;HPM_P2
2021/10/02 00:37:33;;;;;;;18.80;12.20;;;;;;;4.54;85.63;98322.58;116968;1177;70502;-69
2021/10/02 00:45:42;;;;;;;21.00;14.00;;;;;;;4.55;86.78;98314.44;117006;1176;59504;-70
2021/10/02 00:48:13;;;;;;;20.90;14.00;;;;;;;4.54;86.72;98312.85;117048;1177;59520;-70
2021/10/02 00:50:46;;;;;;;22.20;15.20;;;;;;;4.51;86.77;98312.05;117104;1177;70420;-70
2021/10/02 00:53:15;;;;;;;25.60;14.70;;;;;;;4.49;87.13;98313.12;116991;1177;69048;-72
2021/10/02 00:55:45;;;;;;;20.00;13.90;;;;;;;4.46;87.04;98309.55;116980;1177;67677;-72
2021/10/02 00:58:14;;;;;;;20.60;12.50;;;;;;;4.42;86.69;98307.95;116977;1177;59548;-70
2021/10/02 01:00:48;;;;;;;20.30;11.60;;;;;;;4.35;86.35;98306.11;117065;1177;59503;-70
2021/10/02 01:03:43;;;;;;;19.60;11.50;;;;;;;4.30;86.76;98309.26;117036;1177;71386;-70
2021/10/02 01:06:24;;;;;;;17.70;11.30;;;;;;;4.26;86.80;98304.83;117097;1177;68473;-73
2021/10/02 01:09:11;;;;;;;20.20;11.40;;;;;;;4.23;86.30;98303.02;117060;1176;68378;-73
2021/10/02 01:12:02;;;;;;;17.10;10.80;;;;;;;4.18;86.03;98305.16;117009;1174;59538;-70
2021/10/02 01:14:48;;;;;;;14.70;9.50;;;;;;;4.13;86.17;98300.09;117091;1172;59536;-73
2021/10/02 01:17:31;;;;;;;18.80;10.50;;;;;;;4.09;86.81;98303.10;117101;1173;71375;-70
2021/10/02 01:20:20;;;;;;;18.10;10.70;;;;;;;4.07;86.87;98302.61;117011;1177;69502;-69
2021/10/02 01:23:27;;;;;;;16.20;10.90;;;;;;;4.07;86.16;98302.77;116876;1177;68271;-69
2021/10/02 01:26:26;;;;;;;19.00;11.20;;;;;;;4.10;86.04;98302.48;117020;1177;59914;-73
2021/10/02 01:28:59;;;;;;;19.70;11.10;;;;;;;4.12;85.64;98303.59;117118;1177;59510;-71
2021/10/02 01:31:35;;;;;;;15.10;9.60;;;;;;;4.12;85.39;98302.50;116898;1176;70407;-73
2021/10/02 01:34:16;;;;;;;16.50;11.10;;;;;;;4.10;86.05;98301.45;117127;1177;69257;-69
2021/10/02 01:47:59;;;;;;;19.90;9.80;;;;;;;4.08;85.03;98300.34;117021;1176;68682;-67
2021/10/02 01:50:34;;;;;;;16.40;9.80;;;;;;;4.10;85.45;98297.39;117023;1177;68445;-69
2021/10/02 01:53:06;;;;;;;17.40;9.40;;;;;;;4.08;85.48;98303.95;117127;1176;59513;-71
2021/10/02 01:55:38;;;;;;;17.10;9.60;;;;;;;4.04;85.64;98301.95;117070;1177;59532;-73
2021/10/02 01:58:10;;;;;;;14.90;9.00;;;;;;;3.99;85.22;98296.73;117026;1177;70659;-72
2021/10/02 02:00:44;;;;;;;13.70;8.10;;;;;;;3.94;85.20;98299.02;117078;1176;69159;-68
2021/10/02 02:03:17;;;;;;;14.10;8.00;;;;;;;3.90;85.59;98301.17;117003;1177;69561;-72
2021/10/02 02:05:49;;;;;;;16.70;9.90;;;;;;;3.87;86.39;98304.83;117013;1177;59545;-71
2021/10/02 02:08:24;;;;;;;17.40;9.30;;;;;;;3.85;85.57;98303.95;117058;1177;59991;-68
2021/10/02 02:10:56;;;;;;;16.40;8.10;;;;;;;3.86;85.10;98300.20;117088;1177;70570;-70
2021/10/02 02:13:27;;;;;;;17.20;9.20;;;;;;;3.88;85.07;98299.36;117123;1177;68264;-73
2021/10/02 02:15:59;;;;;;;14.90;9.50;;;;;;;3.88;84.90;98297.17;117123;1177;69332;-70
2021/10/02 02:18:31;;;;;;;15.90;9.20;;;;;;;3.91;84.58;98294.22;117075;1177;59480;-72
2021/10/02 02:21:04;;;;;;;16.70;10.00;;;;;;;3.94;84.75;98290.64;116933;1177;59993;-71
2021/10/02 02:23:35;;;;;;;12.50;8.90;;;;;;;3.98;85.24;98290.31;117096;1172;71352;-71
2021/10/02 02:26:08;;;;;;;11.90;8.30;;;;;;;4.00;85.64;98293.23;117126;1177;68336;-70
2021/10/02 02:28:40;;;;;;;16.40;9.00;;;;;;;3.99;85.04;98292.43;117127;1177;68315;-69
2021/10/02 02:31:10;;;;;;;12.10;9.00;;;;;;;3.97;85.30;98289.45;117097;1177;59501;-69
2021/10/02 02:33:41;;;;;;;16.50;9.20;;;;;;;3.96;85.28;98290.23;116947;1177;59530;-73
2021/10/02 02:36:11;;;;;;;13.80;9.20;;;;;;;3.95;84.56;98292.15;117081;1177;71362;-71
2021/10/02 02:38:41;;;;;;;14.00;8.90;;;;;;;3.96;84.38;98296.23;116965;1177;68418;-72
2021/10/02 02:41:12;;;;;;;;;;;;;;;3.94;84.39;98294.02;117226;1177;69074;-69
2021/10/02 02:43:42;;;;;;;12.90;8.20;;;;;;;3.91;84.31;98293.83;117084;1177;59548;-72
2021/10/02 02:46:18;;;;;;;13.00;8.50;;;;;;;3.88;84.55;98296.54;117023;1177;59492;-69
2021/10/02 02:49:12;;;;;;;13.90;7.90;;;;;;;3.85;84.32;98292.60;117121;1177;71382;-69
2021/10/02 02:52:08;;;;;;;17.50;9.10;;;;;;;3.83;84.11;98290.08;117116;1177;70382;-71
2021/10/02 02:55:03;;;;;;;14.50;8.80;;;;;;;3.78;83.82;98289.80;117168;1177;69452;-73
2021/10/02 02:57:43;;;;;;;15.40;9.70;;;;;;;3.74;83.89;98292.07;117098;1177;59491;-70
2021/10/02 03:00:16;;;;;;;14.20;9.30;;;;;;;3.65;84.19;98290.11;117183;1177;59535;-70
2021/10/02 03:03:00;;;;;;;19.10;9.80;;;;;;;3.60;84.58;98289.42;117243;1177;71251;-71
2021/10/02 03:05:33;;;;;;;15.50;9.80;;;;;;;3.55;84.83;98287.39;117263;1177;68165;-71
2021/10/02 03:08:11;;;;;;;15.60;9.80;;;;;;;3.52;85.28;98288.52;117191;1176;69254;-72
2021/10/02 03:10:47;;;;;;;18.60;10.10;;;;;;;3.50;85.04;98288.98;117090;1176;59518;-69
2021/10/02 03:13:22;;;;;;;14.70;9.40;;;;;;;3.49;84.74;98281.62;117036;1177;59542;-68
2021/10/02 03:15:52;;;;;;;16.60;10.30;;;;;;;3.50;85.13;98281.86;117046;1177;71403;-69
2021/10/02 03:18:26;;;;;;;18.70;10.80;;;;;;;3.53;85.54;98277.75;117101;1176;67911;-71
2021/10/02 03:20:57;;;;;;;17.40;9.60;;;;;;;3.55;85.67;98283.95;117055;1177;68277;-72
2021/10/02 03:23:28;;;;;;;14.60;9.80;;;;;;;3.56;85.61;98276.91;117104;1177;59538;-71
2021/10/02 03:25:58;;;;;;;17.80;10.30;;;;;;;3.59;85.61;98281.42;117149;1177;59478;-72
2021/10/02 03:28:29;;;;;;;16.00;11.20;;;;;;;3.60;85.40;98276.27;117132;1177;71187;-72
2021/10/02 03:30:59;;;;;;;16.60;10.10;;;;;;;3.58;85.20;98278.50;117161;1177;68245;-71
2021/10/02 03:33:31;;;;;;;14.70;9.60;;;;;;;3.56;85.39;98274.02;117169;1177;68493;-70
2021/10/02 03:36:00;;;;;;;14.00;9.20;;;;;;;3.51;84.86;98273.27;117121;1177;59596;-71
2021/10/02 03:38:30;;;;;;;14.50;8.70;;;;;;;3.48;84.65;98272.45;117068;1177;59495;-71
2021/10/02 03:41:01;;;;;;;12.90;7.80;;;;;;;3.45;84.91;98274.22;117222;1176;71550;-70
2021/10/02 03:43:33;;;;;;;13.70;7.80;;;;;;;3.43;84.92;98278.02;117223;1170;69136;-69
2021/10/02 03:46:04;;;;;;;12.00;7.80;;;;;;;3.40;85.03;98279.06;117226;1177;68519;-71
2021/10/02 03:48:34;;;;;;;16.20;9.10;;;;;;;3.37;84.68;98277.30;117098;1177;59539;-69
2021/10/02 03:51:05;;;;;;;18.00;9.30;;;;;;;3.34;84.50;98280.41;117082;1176;59555;-72
2021/10/02 03:53:35;;;;;;;15.30;9.70;;;;;;;3.33;84.80;98281.49;117041;1177;71380;-71
2021/10/02 03:56:06;;;;;;;20.10;8.70;;;;;;;3.33;84.54;98280.23;117087;1176;67476;-72
2021/10/02 03:58:35;;;;;;;12.90;8.90;;;;;;;3.33;84.62;98281.65;117108;1176;69397;-73
2021/10/02 04:01:06;;;;;;;16.90;9.10;;;;;;;3.33;84.52;98279.39;117122;1177;59509;-72
2021/10/02 04:03:35;;;;;;;14.30;8.70;;;;;;;3.33;84.52;98281.02;117149;1177;59497;-72
2021/10/02 04:06:04;;;;;;;12.60;8.30;;;;;;;3.30;84.44;98279.04;117130;1177;71272;-72
2021/10/02 04:08:33;;;;;;;12.20;7.80;;;;;;;3.28;84.48;98277.69;117100;1176;67616;-71
2021/10/02 04:11:04;;;;;;;14.80;8.50;;;;;;;3.27;84.25;98277.45;117070;1176;69456;-73
2021/10/02 04:13:33;;;;;;;14.10;9.10;;;;;;;3.29;84.02;98275.34;117107;1177;59497;-69
2021/10/02 04:16:02;;;;;;;11.80;7.00;;;;;;;3.33;83.86;98283.20;117116;1172;59532;-70
2021/10/02 04:18:33;;;;;;;13.10;7.60;;;;;;;3.34;83.75;98283.45;117121;1176;71424;-70
2021/10/02 04:21:03;;;;;;;13.50;7.80;;;;;;;3.38;83.42;98283.42;117140;1177;68725;-71
2021/10/02 04:23:32;;;;;;;14.70;7.20;;;;;;;3.44;83.12;98290.55;117001;1176;67313;-72
2021/10/02 04:26:02;;;;;;;12.40;7.20;;;;;;;3.49;83.11;98291.08;117060;1176;59536;-72
2021/10/02 04:28:31;;;;;;;15.20;8.20;;;;;;;3.52;83.10;98291.98;117072;1177;59513;-73
2021/10/02 04:31:03;;;;;;;14.30;7.80;;;;;;;3.51;83.03;98296.65;117091;1177;71386;-70
2021/10/02 04:33:32;;;;;;;17.40;7.70;;;;;;;3.48;83.26;98294.50;117072;1177;68725;-72
2021/10/02 04:36:03;;;;;;;;;;;;;;;3.45;82.99;98297.14;117001;1177;69227;-72
2021/10/02 04:38:32;;;;;;;15.50;7.50;;;;;;;3.44;82.91;98294.39;117090;1177;59491;-73
2021/10/02 04:41:02;;;;;;;11.20;7.40;;;;;;;3.45;83.07;98295.80;117065;1177;59472;-70
2021/10/02 04:43:34;;;;;;;11.60;8.10;;;;;;;3.47;83.09;98296.77;117094;1177;71385;-70
2021/10/02 04:46:03;;;;;;;10.70;7.80;;;;;;;3.50;83.33;98296.80;117092;1177;69234;-70
2021/10/02 04:48:32;;;;;;;13.90;7.90;;;;;;;3.57;83.39;98295.31;117055;1177;69041;-71
2021/10/02 04:51:01;;;;;;;15.20;8.20;;;;;;;3.69;83.25;98297.89;117106;1177;59578;-73
2021/10/02 04:53:31;;;;;;;11.80;7.60;;;;;;;3.83;83.42;98292.90;117169;1177;59531;-70
2021/10/02 04:56:01;;;;;;;12.90;7.90;;;;;;;3.98;83.43;98294.07;116982;1176;71640;-72
2021/10/02 04:58:30;;;;;;;13.70;6.90;;;;;;;4.08;81.67;98294.39;117147;1176;68167;-71
2021/10/02 05:00:59;;;;;;;12.10;7.20;;;;;;;4.16;82.12;98294.48;116978;1177;69055;-71
2021/10/02 05:03:29;;;;;;;10.90;7.50;;;;;;;4.32;82.20;98291.51;117069;1177;59488;-73
2021/10/02 05:05:58;;;;;;;10.60;6.80;;;;;;;4.53;81.92;98296.31;117115;1177;59542;-74
2021/10/02 05:08:27;;;;;;;11.00;6.70;;;;;;;4.73;81.14;98292.86;117060;1177;70715;-71
2021/10/02 05:10:56;;;;;;;13.60;6.90;;;;;;;4.92;80.96;98295.42;117020;1177;69321;-71
2021/10/02 05:13:26;;;;;;;11.90;6.10;;;;;;;5.15;80.87;98292.42;116884;1170;69206;-70
2021/10/02 05:15:56;;;;;;;11.80;6.70;;;;;;;5.39;79.94;98292.00;117000;1177;59593;-73
2021/10/02 05:18:25;;;;;;;11.20;6.60;;;;;;;5.58;78.63;98294.14;117111;1176;59557;-70
2021/10/02 05:20:54;;;;;;;15.30;7.90;;;;;;;5.74;77.71;98296.88;117051;1177;71184;-73
2021/10/02 05:23:24;;;;;;;13.10;7.30;;;;;;;5.97;77.47;98300.11;117001;1176;68566;-71
2021/10/02 05:25:54;;;;;;;11.00;6.70;;;;;;;6.21;76.95;98299.94;117088;1177;69352;-74
2021/10/02 05:28:24;;;;;;;10.80;6.60;;;;;;;6.47;76.60;98298.33;116986;1177;59558;-72
2021/10/02 05:30:53;;;;;;;10.60;6.40;;;;;;;6.74;75.45;98299.74;117098;1177;59536;-73
2021/10/02 05:33:22;;;;;;;12.20;6.70;;;;;;;6.98;73.16;98300.27;117029;1177;71401;-71
2021/10/02 05:35:51;;;;;;;11.90;7.20;;;;;;;7.19;71.97;98299.84;117059;1177;69226;-71
2021/10/02 05:38:21;;;;;;;16.70;7.10;;;;;;;7.52;72.02;98300.00;117104;1177;68440;-70
2021/10/02 05:40:50;;;;;;;14.70;7.90;;;;;;;7.73;73.38;98301.34;116919;1177;59536;-72
2021/10/02 05:43:19;;;;;;;18.50;9.40;;;;;;;7.84;72.57;98303.41;116956;1177;59561;-72
2021/10/02 05:45:48;;;;;;;16.60;9.70;;;;;;;7.96;72.37;98308.25;117147;1177;71331;-73
2021/10/02 05:48:17;;;;;;;22.10;10.30;;;;;;;8.03;71.08;98306.55;117113;1176;68537;-72
2021/10/02 05:50:46;;;;;;;18.90;9.70;;;;;;;8.23;71.12;98309.19;116984;1177;68550;-71
2021/10/02 05:53:15;;;;;;;18.40;10.30;;;;;;;8.33;70.62;98309.70;117031;1177;59532;-74
2021/10/02 05:55:44;;;;;;;21.00;10.60;;;;;;;8.47;69.03;98314.21;117037;1176;59487;-72
2021/10/02 05:58:13;;;;;;;24.60;11.50;;;;;;;8.68;67.88;98313.50;117128;1176;71190;-70
2021/10/02 06:00:42;;;;;;;34.90;11.70;;;;;;;8.96;66.83;98312.55;116937;1176;68573;-71
2021/10/02 06:03:11;;;;;;;26.20;11.80;;;;;;;9.26;66.23;98307.05;117148;1176;69051;-74
2021/10/02 06:05:40;;;;;;;31.20;13.10;;;;;;;9.50;64.33;98308.16;117150;1176;59542;-72
2021/10/02 06:08:09;;;;;;;21.10;12.00;;;;;;;9.75;63.73;98306.03;116966;1177;59454;-73
2021/10/02 06:10:38;;;;;;;20.50;11.60;;;;;;;10.06;63.41;98304.61;116963;1177;69673;-72
2021/10/02 06:13:07;;;;;;;26.60;10.30;;;;;;;10.50;63.16;98308.38;117125;1176;69119;-70
2021/10/02 06:15:36;;;;;;;25.10;10.80;;;;;;;10.81;62.59;98306.79;117044;1177;69384;-69
2021/10/02 06:18:05;;;;;;;25.40;12.00;;;;;;;11.16;61.45;98306.91;116912;1177;59520;-70
2021/10/02 06:20:34;;;;;;;52.30;21.00;;;;;;;11.29;59.33;98307.86;116865;1177;59531;-71
2021/10/02 06:23:04;;;;;;;51.80;23.00;;;;;;;11.29;58.77;98309.13;116937;1177;70736;-71
2021/10/02 06:25:34;;;;;;;57.70;21.60;;;;;;;11.38;58.76;98308.42;117065;1176;68073;-72
2021/10/02 06:28:03;;;;;;;45.20;20.20;;;;;;;11.69;57.55;98305.43;117260;1176;67292;-72
2021/10/02 06:30:32;;;;;;;30.70;14.60;;;;;;;12.29;58.06;98308.55;116965;1176;59513;-72
2021/10/02 06:33:01;;;;;;;20.30;11.60;;;;;;;12.71;54.94;98304.68;117052;1176;59487;-73
2021/10/02 06:35:30;;;;;;;19.40;9.60;;;;;;;13.16;55.60;98306.19;117101;1177;71376;-70
2021/10/02 06:37:59;;;;;;;14.90;8.70;;;;;;;13.53;54.53;98307.75;117278;1177;69256;-73
2021/10/02 06:40:28;;;;;;;18.40;7.70;;;;;;;13.86;53.66;98310.02;116976;1177;69928;-74
2021/10/02 06:42:56;;;;;;;14.10;7.60;;;;;;;13.97;52.89;98311.71;117076;1176;59522;-72
2021/10/02 06:45:25;;;;;;;15.70;7.10;;;;;;;14.14;51.64;98308.17;117159;1176;59520;-74
2021/10/02 06:47:54;;;;;;;19.60;7.50;;;;;;;14.10;51.34;98309.10;117185;1176;71472;-71
2021/10/02 06:50:23;;;;;;;20.50;7.30;;;;;;;14.25;51.02;98309.54;117217;1176;69298;-71
2021/10/02 06:52:54;;;;;;;13.50;6.10;;;;;;;14.53;51.03;98306.95;117044;1177;69341;-71
2021/10/02 06:55:24;;;;;;;14.50;6.20;;;;;;;14.61;49.10;98311.39;116909;1177;59503;-73
2021/10/02 06:57:53;;;;;;;16.40;6.20;;;;;;;14.98;48.68;98310.20;117050;1177;59532;-76
2021/10/02 07:00:22;;;;;;;12.70;6.10;;;;;;;15.09;47.79;98310.24;117016;1176;72612;-69
2021/10/02 07:02:51;;;;;;;12.70;5.60;;;;;;;15.13;47.41;98311.55;116971;1177;69211;-72
2021/10/02 07:05:20;;;;;;;10.80;5.00;;;;;;;15.26;46.13;98307.25;117056;1177;69092;-73
2021/10/02 07:07:49;;;;;;;15.60;7.60;;;;;;;15.59;44.97;98303.70;117106;1176;59476;-70
2021/10/02 07:10:20;;;;;;;12.10;5.50;;;;;;;15.85;44.10;98300.85;117029;1176;59468;-72
2021/10/02 07:12:51;;;;;;;13.40;6.40;;;;;;;16.04;44.08;98302.46;117010;1177;70399;-73
2021/10/02 07:15:21;;;;;;;13.10;5.80;;;;;;;16.22;42.21;98294.50;117207;1177;70506;-72
2021/10/02 07:17:50;;;;;;;12.50;5.30;;;;;;;16.30;41.15;98295.16;117005;1177;67452;-70
2021/10/02 07:20:22;;;;;;;11.40;5.50;;;;;;;16.90;41.50;98294.06;117085;1177;59464;-70
2021/10/02 07:22:51;;;;;;;12.80;5.10;;;;;;;16.82;39.50;98291.96;117084;1177;59632;-72
2021/10/02 07:25:24;;;;;;;12.50;5.20;;;;;;;17.00;40.32;98292.46;117043;1177;70588;-73
2021/10/02 07:27:53;;;;;;;14.10;5.70;;;;;;;17.29;38.92;98294.05;117116;1177;68350;-73
2021/10/02 07:30:22;;;;;;;7.80;4.50;;;;;;;17.15;38.59;98292.41;117103;1177;68819;-72
2021/10/02 07:32:52;;;;;;;10.00;5.10;;;;;;;17.35;39.15;98290.23;117023;1177;59504;-72
2021/10/02 07:35:21;;;;;;;9.10;4.90;;;;;;;17.46;38.36;98285.87;117021;1177;59468;-73
2021/10/02 07:37:50;;;;;;;11.40;4.90;;;;;;;17.31;38.19;98286.99;117019;1178;71442;-71
2021/10/02 07:40:20;;;;;;;7.20;4.30;;;;;;;17.71;38.42;98287.80;117123;1177;69129;-72
2021/10/02 07:42:52;;;;;;;11.70;4.00;;;;;;;18.46;36.30;98282.18;116914;1177;69936;-72
2021/10/02 07:45:23;;;;;;;10.70;4.50;;;;;;;18.77;35.83;98279.27;116949;1177;59497;-73
2021/10/02 07:47:54;;;;;;;12.00;4.50;;;;;;;19.05;34.72;98279.09;117106;1177;59948;-72
2021/10/02 07:50:24;;;;;;;13.90;4.60;;;;;;;19.19;34.42;98277.17;117050;1177;72787;-72
2021/10/02 07:52:55;;;;;;;;;;;;;;;19.62;33.48;98275.39;117091;1177;68831;-72
2021/10/02 07:55:26;;;;;;;10.30;4.30;;;;;;;19.61;33.50;98274.09;117004;1176;69643;-71
2021/10/02 07:57:55;;;;;;;13.60;4.10;;;;;;;19.57;32.96;98271.77;117027;1177;59520;-70
2021/10/02 08:00:24;;;;;;;8.50;4.60;;;;;;;19.04;33.32;98270.80;117017;1177;59526;-73
2021/10/02 08:02:56;;;;;;;8.00;3.90;;;;;;;19.34;33.21;98268.73;117004;1177;71293;-75
2021/10/02 08:05:26;;;;;;;7.90;4.00;;;;;;;19.95;32.75;98264.55;117055;1176;68277;-73
2021/10/02 08:07:55;;;;;;;8.10;4.20;;;;;;;20.66;31.21;98267.50;117013;1168;68717;-73
2021/10/02 08:10:29;;;;;;;11.30;4.80;;;;;;;20.91;31.07;98265.56;117026;1177;59548;-71
2021/10/02 08:12:58;;;;;;;7.50;3.90;;;;;;;21.11;28.70;98263.02;117097;1177;59506;-74
2021/10/02 08:15:27;;;;;;;9.30;4.20;;;;;;;21.04;29.63;98261.70;117088;1176;72055;-71
2021/10/02 08:17:57;;;;;;;7.60;4.00;;;;;;;21.31;29.21;98260.44;116976;1177;70430;-70
2021/10/02 08:20:29;;;;;;;8.80;4.30;;;;;;;21.45;27.76;98259.85;117037;1177;68793;-73
2021/10/02 08:22:59;;;;;;;11.70;4.20;;;;;;;21.34;27.72;98256.64;116966;1177;59508;-71
2021/10/02 08:25:31;;;;;;;9.00;4.60;;;;;;;21.45;27.58;98257.03;117100;1177;60616;-72
2021/10/02 08:28:03;;;;;;;7.80;4.00;;;;;;;21.77;27.55;98252.77;117086;1176;70410;-74
2021/10/02 08:30:34;;;;;;;7.80;4.00;;;;;;;21.90;26.29;98251.78;117068;1177;70506;-71
2021/10/02 08:33:07;;;;;;;10.30;3.90;;;;;;;21.86;26.47;98248.87;117011;1177;68999;-71
2021/10/02 08:35:37;;;;;;;10.40;3.70;;;;;;;21.63;26.78;98242.73;117115;1176;59528;-72
2021/10/02 08:38:06;;;;;;;;;;;;;;;21.52;26.59;98240.25;116996;1177;59522;-72
2021/10/02 08:40:35;;;;;;;7.90;3.50;;;;;;;21.92;27.05;98237.95;117011;1177;71479;-73
2021/10/02 08:43:10;;;;;;;7.20;3.60;;;;;;;21.80;26.86;98234.96;116944;1170;69138;-71
2021/10/02 08:45:40;;;;;;;9.90;4.00;;;;;;;22.31;26.77;98231.30;116978;1177;69150;-71
2021/10/02 08:48:14;;;;;;;7.50;4.00;;;;;;;22.70;26.10;98232.30;116913;1177;59580;-72
2021/10/02 08:50:45;;;;;;;10.30;3.80;;;;;;;23.38;25.92;98227.59;117069;1177;59458;-70
2021/10/02 08:53:16;;;;;;;7.60;3.50;;;;;;;23.47;26.15;98231.42;116928;1177;70838;-71
2021/10/02 08:55:45;;;;;;;8.70;3.60;;;;;;;24.23;24.51;98234.01;116971;1177;69357;-72
2021/10/02 08:58:15;;;;;;;7.80;3.40;;;;;;;24.29;24.26;98232.33;117014;1177;69248;-71
2021/10/02 09:00:45;;;;;;;6.20;3.30;;;;;;;24.01;24.04;98229.80;116987;1174;59519;-74
2021/10/02 09:03:14;;;;;;;5.90;3.60;;;;;;;23.89;24.13;98219.48;116996;1177;59527;-71
2021/10/02 09:05:43;;;;;;;7.50;3.70;;;;;;;24.13;23.55;98220.31;117058;1177;71409;-72
2021/10/02 09:08:14;;;;;;;9.50;3.40;;;;;;;23.46;23.92;98211.63;117076;1176;68356;-70
2021/10/02 09:10:43;;;;;;;7.40;3.20;;;;;;;23.93;24.12;98207.48;117023;1177;68829;-71
2021/10/02 09:13:12;;;;;;;6.90;3.20;;;;;;;24.47;23.43;98207.04;117074;1176;59523;-72
2021/10/02 09:15:41;;;;;;;7.70;3.30;;;;;;;24.80;22.30;98206.98;117173;1177;59897;-72
2021/10/02 09:18:10;;;;;;;6.40;3.20;;;;;;;24.94;22.08;98199.96;116951;1177;70538;-71
2021/10/02 09:20:39;;;;;;;6.10;3.20;;;;;;;24.77;22.45;98199.48;117089;1176;67579;-69
2021/10/02 09:23:08;;;;;;;8.30;3.30;;;;;;;25.02;21.86;98201.23;117107;1177;69420;-70
2021/10/02 09:25:44;;;;;;;;;;;;;;;24.39;22.70;98197.22;116980;1177;59523;-71
2021/10/02 09:28:17;;;;;;;7.50;3.80;;;;;;;24.95;22.70;98193.82;116982;1176;59990;-71
2021/10/02 09:30:46;;;;;;;5.30;3.30;;;;;;;24.74;22.91;98192.42;116943;1177;71386;-71
2021/10/02 09:33:20;;;;;;;7.30;3.40;;;;;;;25.00;22.66;98188.41;116977;1177;68352;-71
2021/10/02 09:35:51;;;;;;;8.10;3.40;;;;;;;25.34;21.62;98185.34;116967;1177;69335;-73
2021/10/02 09:38:20;;;;;;;10.70;3.20;;;;;;;25.74;21.11;98176.20;116985;1177;59535;-73
2021/10/02 09:40:52;;;;;;;6.50;3.00;;;;;;;25.78;20.70;98174.73;117120;1177;59529;-73
2021/10/02 09:43:22;;;;;;;11.40;3.30;;;;;;;25.87;19.96;98170.24;116977;1177;72091;-73
2021/10/02 09:45:52;;;;;;;6.40;2.80;;;;;;;25.71;19.27;98167.45;117192;1176;68578;-74
2021/10/02 09:48:30;;;;;;;7.00;2.80;;;;;;;25.92;19.96;98166.29;117177;1176;69353;-73
2021/10/02 09:51:05;;;;;;;6.30;2.80;;;;;;;26.25;20.03;98161.83;117257;1176;59528;-73
2021/10/02 09:53:43;;;;;;;5.60;2.50;;;;;;;26.52;19.05;98158.66;117078;1170;59503;-74
2021/10/02 09:56:14;;;;;;;7.10;3.00;;;;;;;26.10;18.88;98161.39;117014;1177;70834;-74
2021/10/02 09:58:43;;;;;;;6.60;2.60;;;;;;;26.00;19.30;98161.67;117028;1177;68400;-72
2021/10/02 10:01:27;;;;;;;4.10;2.70;;;;;;;26.16;18.84;98159.95;117068;1176;68654;-73
2021/10/02 10:03:56;;;;;;;7.50;2.80;;;;;;;25.75;18.56;98157.23;117112;1177;59580;-73
2021/10/02 10:06:27;;;;;;;4.50;2.70;;;;;;;25.80;18.86;98155.63;117117;1177;59503;-71
2021/10/02 10:09:11;;;;;;;7.30;3.10;;;;;;;25.70;19.10;98152.09;117033;1177;70512;-70
2021/10/02 10:11:45;;;;;;;6.90;2.90;;;;;;;25.77;19.47;98150.34;116967;1169;69343;-72
2021/10/02 10:14:19;;;;;;;5.50;2.50;;;;;;;26.39;19.05;98142.15;117153;1176;68000;-70
2021/10/02 10:16:49;;;;;;;5.90;2.70;;;;;;;26.82;18.53;98141.80;117010;1176;59481;-73
2021/10/02 10:19:24;;;;;;;3.90;2.50;;;;;;;26.75;18.09;98140.44;117076;1176;59558;-73
2021/10/02 10:22:09;;;;;;;7.80;2.50;;;;;;;27.35;17.71;98135.21;117213;1177;70606;-72
2021/10/02 10:24:44;;;;;;;4.70;2.60;;;;;;;27.51;17.64;98128.53;117110;1173;69017;-74
2021/10/02 10:27:12;;;;;;;6.00;2.60;;;;;;;27.63;17.58;98125.91;117174;1177;68275;-73
2021/10/02 10:29:44;;;;;;;5.60;2.60;;;;;;;27.40;16.85;98124.76;117219;1177;59516;-73
2021/10/02 10:32:14;;;;;;;9.00;2.80;;;;;;;26.98;17.51;98129.43;117011;1177;59520;-72
2021/10/02 10:34:42;;;;;;;3.80;2.60;;;;;;;26.96;17.82;98122.27;117118;1177;71419;-73
2021/10/02 10:37:12;;;;;;;6.50;2.70;;;;;;;26.83;17.68;98117.98;117100;1177;69603;-74
2021/10/02 10:39:41;;;;;;;8.10;2.80;;;;;;;26.84;18.21;98108.45;117222;1177;69132;-74
2021/10/02 10:42:10;;;;;;;8.70;3.10;;;;;;;26.88;18.28;98106.66;117035;1177;59492;-72
2021/10/02 10:44:40;;;;;;;5.20;2.80;;;;;;;26.87;17.81;98102.23;117060;1176;59462;-75
2021/10/02 10:47:09;;;;;;;5.40;2.50;;;;;;;26.88;17.96;98102.23;117339;1176;71445;-74
2021/10/02 10:49:40;;;;;;;5.50;2.70;;;;;;;26.47;17.94;98098.23;117329;1176;69712;-75
2021/10/02 10:52:14;;;;;;;5.40;3.20;;;;;;;27.00;17.45;98095.85;117242;1176;69210;-73
2021/10/02 10:54:43;;;;;;;7.60;2.40;;;;;;;27.74;17.32;98090.75;117228;1176;59620;-74
2021/10/02 10:57:38;;;;;;;8.20;2.60;;;;;;;27.84;16.95;98087.95;117060;1177;59545;-71
2021/10/02 11:00:20;;;;;;;4.40;2.40;;;;;;;28.11;16.36;98086.45;117305;1176;71377;-71
2021/10/02 11:03:00;;;;;;;7.50;2.90;;;;;;;28.00;16.43;98082.20;117361;1177;68450;-71
2021/10/02 11:05:35;;;;;;;6.10;2.60;;;;;;;27.73;17.40;98076.37;117160;1176;68433;-73
2021/10/02 11:08:08;;;;;;;6.00;2.60;;;;;;;27.91;17.29;98073.75;117163;1177;59577;-74
2021/10/02 11:10:46;;;;;;;5.70;2.50;;;;;;;28.13;16.36;98071.02;116864;1179;59600;-74
2021/10/02 11:13:29;;;;;;;6.00;2.30;;;;;;;28.04;16.85;98068.03;117052;1171;72008;-74
2021/10/02 11:16:38;;;;;;;5.10;2.40;;;;;;;27.99;16.31;98061.61;116990;1177;69344;-74
2021/10/02 11:19:32;;;;;;;8.20;2.80;;;;;;;27.61;16.81;98061.41;117068;1177;68448;-74
2021/10/02 11:22:45;;;;;;;7.50;2.80;;;;;;;27.51;16.94;98058.42;117139;1177;59497;-73
2021/10/02 11:25:22;;;;;;;5.00;3.10;;;;;;;27.52;17.05;98055.70;117045;1177;59524;-74
2021/10/02 11:27:52;;;;;;;4.10;2.50;;;;;;;27.71;17.55;98057.58;116994;1177;70894;-72
2021/10/02 11:30:21;;;;;;;6.00;2.30;;;;;;;28.11;16.23;98054.55;117174;1177;68802;-71
2021/10/02 11:32:50;;;;;;;5.40;2.60;;;;;;;27.84;16.83;98053.89;117016;1177;68510;-71
2021/10/02 11:35:34;;;;;;;6.10;2.50;;;;;;;27.68;16.88;98057.90;117084;1176;59518;-74
2021/10/02 11:38:07;;;;;;;5.00;2.40;;;;;;;27.41;16.78;98054.58;117001;1176;59487;-72
2021/10/02 11:40:36;;;;;;;3.60;2.20;;;;;;;27.51;16.74;98051.52;117053;1168;71400;-72
2021/10/02 11:43:18;;;;;;;3.20;2.20;;;;;;;27.60;17.12;98049.52;116954;1177;68484;-71
2021/10/02 11:45:47;;;;;;;3.90;2.20;;;;;;;27.70;17.22;98049.37;116954;1176;69059;-73
2021/10/02 11:48:39;;;;;;;4.70;2.60;;;;;;;27.85;16.40;98046.77;116907;1177;59510;-75
2021/10/02 11:51:26;;;;;;;5.70;2.60;;;;;;;27.66;16.81;98041.94;116957;1177;59519;-72
2021/10/02 11:53:59;;;;;;;4.10;2.50;;;;;;;27.70;17.34;98041.62;117004;1177;71404;-75
2021/10/02 11:56:29;;;;;;;6.50;2.40;;;;;;;27.66;17.08;98047.11;117169;1177;69433;-72
2021/10/02 11:58:59;;;;;;;5.20;3.20;;;;;;;27.50;16.97;98038.52;117158;1177;69299;-72
2021/10/02 12:01:29;;;;;;;;;;;;;;;27.77;16.73;98039.81;117179;1177;59487;-73
2021/10/02 12:04:16;;;;;;;5.70;2.20;;;;;;;27.42;17.07;98032.69;117094;1177;59528;-74
2021/10/02 12:06:47;;;;;;;3.10;2.30;;;;;;;27.57;16.67;98035.39;117043;1176;71349;-73
2021/10/02 12:09:17;;;;;;;5.10;2.70;;;;;;;27.28;17.57;98038.29;117030;1177;68962;-73
2021/10/02 12:11:50;;;;;;;4.30;2.20;;;;;;;27.25;17.23;98034.81;116890;1177;69088;-73
2021/10/02 12:14:21;;;;;;;7.00;2.20;;;;;;;27.09;17.06;98032.55;116921;1177;59548;-71
2021/10/02 12:16:54;;;;;;;11.10;2.50;;;;;;;27.39;17.43;98031.79;117145;1177;59517;-72
2021/10/02 12:19:23;;;;;;;6.70;2.30;;;;;;;28.03;16.87;98026.91;116958;1177;70705;-73
2021/10/02 12:21:56;;;;;;;;;;;;;;;27.93;17.00;98029.45;117145;1177;69160;-72
2021/10/02 12:24:30;;;;;;;4.10;2.50;;;;;;;27.64;17.15;98026.39;116964;1177;69265;-73
2021/10/02 12:27:02;;;;;;;4.80;2.40;;;;;;;28.03;17.39;98023.90;117128;1176;59600;-73
2021/10/02 12:29:33;;;;;;;4.60;2.50;;;;;;;28.01;16.97;98028.45;117198;1176;59476;-73
2021/10/02 12:32:05;;;;;;;3.70;2.40;;;;;;;27.99;16.82;98021.96;116974;1177;70569;-73
2021/10/02 12:34:38;;;;;;;3.30;2.30;;;;;;;28.39;16.53;98019.71;117049;1177;68736;-72
2021/10/02 12:37:08;;;;;;;4.50;2.10;;;;;;;27.80;17.26;98020.48;116921;1177;69235;-75
2021/10/02 12:39:48;;;;;;;4.80;2.40;;;;;;;27.96;17.08;98018.44;116835;1178;59542;-75
2021/10/02 12:42:30;;;;;;;5.90;2.60;;;;;;;27.42;17.39;98018.63;116960;1177;59516;-73